sensor_id;sensor_type;location;lat;lon;timestamp;pressure;altitude;pressure_sealevel;temperature;humidity
54808;BME280;40708;50.364;7.550;2023-03-12T00:01:15;100225.94;;;-0.21;100.00
54808;BME280;40708;50.364;7.550;2023-03-12T00:03:40;100224.22;;;-0.21;100.00
54808;BME280;40708;50.364;7.550;2023-03-12T00:06:06;100222.75;;;-0.14;100.00
54808;BME280;40708;50.364;7.550;2023-03-12T00:08:32;100224.59;;;-0.12;100.00
54808;BME280;40708;50.364;7.550;2023-03-12T00:10:57;100233.41;;;-0.08;100.00
54808;BME280;40708;50.364;7.550;2023-03-12T00:13:22;100230.88;;;-0.07;100.00
54808;BME280;40708;50.364;7.550;2023-03-12T00:15:48;100220.34;;;-0.08;100.00
54808;BME280;40708;50.364;7.550;2023-03-12T00:18:13;100224.84;;;-0.06;100.00
54808;BME280;40708;50.364;7.550;2023-03-12T00:20:38;100225.53;;;-0.10;100.00
54808;BME280;40708;50.364;7.550;2023-03-12T00:23:04;100215.91;;;-0.11;100.00
54808;BME280;40708;50.364;7.550;2023-03-12T00:25:29;100210.78;;;-0.09;100.00
54808;BME280;40708;50.364;7.550;2023-03-12T00:27:54;100218.78;;;-0.05;100.00
54808;BME280;40708;50.364;7.550;2023-03-12T00:30:20;100204.84;;;-0.05;100.00
54808;BME280;40708;50.364;7.550;2023-03-12T00:32:45;100201.53;;;-0.01;100.00
54808;BME280;40708;50.364;7.550;2023-03-12T00:35:10;100203.41;;;0.03;100.00
54808;BME280;40708;50.364;7.550;2023-03-12T00:37:36;100204.38;;;0.05;100.00
54808;BME280;40708;50.364;7.550;2023-03-12T00:40:02;100204.44;;;0.07;100.00
54808;BME280;40708;50.364;7.550;2023-03-12T00:42:30;100203.59;;;0.08;100.00
54808;BME280;40708;50.364;7.550;2023-03-12T00:44:56;100206.88;;;0.02;100.00
54808;BME280;40708;50.364;7.550;2023-03-12T00:47:21;100207.66;;;-0.01;100.00
54808;BME280;40708;50.364;7.550;2023-03-12T00:49:47;100201.56;;;0.00;100.00
54808;BME280;40708;50.364;7.550;2023-03-12T00:52:12;100195.53;;;0.02;100.00
54808;BME280;40708;50.364;7.550;2023-03-12T00:54:38;100199.69;;;-0.04;100.00
54808;BME280;40708;50.364;7.550;2023-03-12T00:57:03;100195.44;;;-0.02;100.00
54808;BME280;40708;50.364;7.550;2023-03-12T00:59:30;100201.53;;;-0.01;100.00
54808;BME280;40708;50.364;7.550;2023-03-12T01:01:55;100197.34;;;0.03;100.00
54808;BME280;40708;50.364;7.550;2023-03-12T01:04:21;100195.66;;;0.05;100.00
54808;BME280;40708;50.364;7.550;2023-03-12T01:06:46;100194.81;;;0.06;100.00
54808;BME280;40708;50.364;7.550;2023-03-12T01:09:11;100192.31;;;0.09;100.00
54808;BME280;40708;50.364;7.550;2023-03-12T01:11:37;100195.81;;;0.09;100.00
54808;BME280;40708;50.364;7.550;2023-03-12T01:14:05;100192.56;;;0.15;100.00
54808;BME280;40708;50.364;7.550;2023-03-12T01:16:31;100190.88;;;0.17;100.00
54808;BME280;40708;50.364;7.550;2023-03-12T01:18:58;100187.47;;;0.18;100.00
54808;BME280;40708;50.364;7.550;2023-03-12T01:21:24;100184.03;;;0.19;100.00
54808;BME280;40708;50.364;7.550;2023-03-12T01:23:49;100189.25;;;0.19;100.00
54808;BME280;40708;50.364;7.550;2023-03-12T01:26:15;100187.34;;;0.15;100.00
54808;BME280;40708;50.364;7.550;2023-03-12T01:28:40;100182.13;;;0.15;100.00
54808;BME280;40708;50.364;7.550;2023-03-12T01:31:11;100185.78;;;0.20;100.00
54808;BME280;40708;50.364;7.550;2023-03-12T01:33:37;100179.69;;;0.19;100.00
54808;BME280;40708;50.364;7.550;2023-03-12T01:36:03;100177.94;;;0.18;100.00
54808;BME280;40708;50.364;7.550;2023-03-12T01:38:29;100179.69;;;0.19;100.00
54808;BME280;40708;50.364;7.550;2023-03-12T01:40:54;100169.16;;;0.16;100.00
54808;BME280;40708;50.364;7.550;2023-03-12T01:43:24;100171.78;;;0.16;100.00
54808;BME280;40708;50.364;7.550;2023-03-12T01:48:33;100179.78;;;0.22;100.00
54808;BME280;40708;50.364;7.550;2023-03-12T01:51:01;100186.16;;;0.29;100.00
54808;BME280;40708;50.364;7.550;2023-03-12T01:53:27;100183.53;;;0.29;100.00
54808;BME280;40708;50.364;7.550;2023-03-12T01:55:53;100180.94;;;0.29;100.00
54808;BME280;40708;50.364;7.550;2023-03-12T01:58:18;100168.00;;;0.32;100.00
54808;BME280;40708;50.364;7.550;2023-03-12T02:00:44;100168.03;;;0.33;100.00
54808;BME280;40708;50.364;7.550;2023-03-12T02:03:09;100161.84;;;0.30;100.00
54808;BME280;40708;50.364;7.550;2023-03-12T02:05:47;100154.16;;;0.34;100.00
54808;BME280;40708;50.364;7.550;2023-03-12T02:08:16;100158.72;;;0.40;100.00
54808;BME280;40708;50.364;7.550;2023-03-12T02:10:42;100157.78;;;0.38;100.00
54808;BME280;40708;50.364;7.550;2023-03-12T02:13:07;100150.81;;;0.38;100.00
54808;BME280;40708;50.364;7.550;2023-03-12T02:15:34;100140.38;;;0.38;100.00
54808;BME280;40708;50.364;7.550;2023-03-12T02:18:04;100146.69;;;0.43;100.00
54808;BME280;40708;50.364;7.550;2023-03-12T02:20:38;100144.06;;;0.43;100.00
54808;BME280;40708;50.364;7.550;2023-03-12T02:23:10;100137.97;;;0.43;100.00
54808;BME280;40708;50.364;7.550;2023-03-12T02:25:46;100137.84;;;0.40;100.00
54808;BME280;40708;50.364;7.550;2023-03-12T02:28:15;100141.28;;;0.39;100.00
54808;BME280;40708;50.364;7.550;2023-03-12T02:30:45;100138.63;;;0.37;100.00
54808;BME280;40708;50.364;7.550;2023-03-12T02:33:12;100135.13;;;0.37;100.00
54808;BME280;40708;50.364;7.550;2023-03-12T02:35:39;100130.84;;;0.39;100.00
54808;BME280;40708;50.364;7.550;2023-03-12T02:38:44;100126.66;;;0.44;100.00
54808;BME280;40708;50.364;7.550;2023-03-12T02:41:36;100123.22;;;0.45;100.00
54808;BME280;40708;50.364;7.550;2023-03-12T02:44:06;100110.28;;;0.48;100.00
54808;BME280;40708;50.364;7.550;2023-03-12T02:46:38;100098.25;;;0.51;100.00
54808;BME280;40708;50.364;7.550;2023-03-12T02:49:04;100091.56;;;0.59;100.00
54808;BME280;40708;50.364;7.550;2023-03-12T02:51:30;100094.44;;;0.67;100.00
54808;BME280;40708;50.364;7.550;2023-03-12T02:53:55;100086.59;;;0.67;100.00
54808;BME280;40708;50.364;7.550;2023-03-12T02:56:22;100088.56;;;0.74;100.00
54808;BME280;40708;50.364;7.550;2023-03-12T02:58:48;100087.84;;;0.78;100.00
54808;BME280;40708;50.364;7.550;2023-03-12T03:01:14;100085.38;;;0.83;100.00
54808;BME280;40708;50.364;7.550;2023-03-12T03:03:40;100083.03;;;0.90;100.00
54808;BME280;40708;50.364;7.550;2023-03-12T03:06:05;100070.03;;;0.92;100.00
54808;BME280;40708;50.364;7.550;2023-03-12T03:08:30;100069.13;;;0.91;100.00
54808;BME280;40708;50.364;7.550;2023-03-12T03:10:56;100071.94;;;0.97;100.00
54808;BME280;40708;50.364;7.550;2023-03-12T03:13:21;100081.72;;;1.03;100.00
54808;BME280;40708;50.364;7.550;2023-03-12T03:15:46;100090.63;;;1.09;100.00
54808;BME280;40708;50.364;7.550;2023-03-12T03:18:12;100089.94;;;1.15;100.00
54808;BME280;40708;50.364;7.550;2023-03-12T03:20:37;100081.47;;;1.22;100.00
54808;BME280;40708;50.364;7.550;2023-03-12T03:23:02;100085.03;;;1.26;100.00
54808;BME280;40708;50.364;7.550;2023-03-12T03:25:28;100076.50;;;1.31;100.00
54808;BME280;40708;50.364;7.550;2023-03-12T03:27:54;100081.03;;;1.37;100.00
54808;BME280;40708;50.364;7.550;2023-03-12T03:30:20;100083.44;;;1.31;100.00
54808;BME280;40708;50.364;7.550;2023-03-12T03:32:47;100085.91;;;1.25;100.00
54808;BME280;40708;50.364;7.550;2023-03-12T03:35:12;100085.13;;;1.29;100.00
54808;BME280;40708;50.364;7.550;2023-03-12T03:37:38;100081.59;;;1.27;100.00
54808;BME280;40708;50.364;7.550;2023-03-12T03:40:04;100079.97;;;1.30;100.00
54808;BME280;40708;50.364;7.550;2023-03-12T03:42:29;100077.28;;;1.27;100.00
54808;BME280;40708;50.364;7.550;2023-03-12T03:44:55;100077.28;;;1.27;100.00
54808;BME280;40708;50.364;7.550;2023-03-12T03:47:20;100074.78;;;1.32;100.00
54808;BME280;40708;50.364;7.550;2023-03-12T03:49:46;100073.19;;;1.37;100.00
54808;BME280;40708;50.364;7.550;2023-03-12T03:52:11;100075.81;;;1.37;100.00
54808;BME280;40708;50.364;7.550;2023-03-12T03:54:36;100076.75;;;1.39;100.00
54808;BME280;40708;50.364;7.550;2023-03-12T03:57:01;100075.97;;;1.41;100.00
54808;BME280;40708;50.364;7.550;2023-03-12T03:59:27;100076.91;;;1.43;100.00
54808;BME280;40708;50.364;7.550;2023-03-12T04:01:52;100083.13;;;1.47;100.00
54808;BME280;40708;50.364;7.550;2023-03-12T04:04:18;100088.38;;;1.48;100.00
54808;BME280;40708;50.364;7.550;2023-03-12T04:06:43;100086.75;;;1.52;100.00
54808;BME280;40708;50.364;7.550;2023-03-12T04:09:08;100088.59;;;1.56;100.00
54808;BME280;40708;50.364;7.550;2023-03-12T04:11:34;100086.13;;;1.60;100.00
54808;BME280;40708;50.364;7.550;2023-03-12T04:13:59;100077.41;;;1.60;100.00
54808;BME280;40708;50.364;7.550;2023-03-12T04:16:25;100070.50;;;1.62;100.00
54808;BME280;40708;50.364;7.550;2023-03-12T04:18:51;100066.88;;;1.57;100.00
54808;BME280;40708;50.364;7.550;2023-03-12T04:21:16;100059.13;;;1.60;100.00
54808;BME280;40708;50.364;7.550;2023-03-12T04:23:42;100069.72;;;1.66;100.00
54808;BME280;40708;50.364;7.550;2023-03-12T04:26:07;100063.63;;;1.65;100.00
54808;BME280;40708;50.364;7.550;2023-03-12T04:28:34;100057.63;;;1.69;100.00
54808;BME280;40708;50.364;7.550;2023-03-12T04:31:01;100052.38;;;1.68;100.00
54808;BME280;40708;50.364;7.550;2023-03-12T04:33:29;100056.63;;;1.64;100.00
54808;BME280;40708;50.364;7.550;2023-03-12T04:35:55;100053.78;;;1.57;100.00
54808;BME280;40708;50.364;7.550;2023-03-12T04:38:23;100054.94;;;1.66;100.00
54808;BME280;40708;50.364;7.550;2023-03-12T04:41:04;100058.63;;;1.73;100.00
54808;BME280;40708;50.364;7.550;2023-03-12T04:43:31;100053.59;;;1.79;100.00
54808;BME280;40708;50.364;7.550;2023-03-12T04:45:58;100048.25;;;1.76;100.00
54808;BME280;40708;50.364;7.550;2023-03-12T04:48:24;100044.56;;;1.69;100.00
54808;BME280;40708;50.364;7.550;2023-03-12T04:50:49;100037.72;;;1.74;100.00
54808;BME280;40708;50.364;7.550;2023-03-12T04:53:15;100038.50;;;1.70;100.00
54808;BME280;40708;50.364;7.550;2023-03-12T04:55:40;100043.97;;;1.79;100.00
54808;BME280;40708;50.364;7.550;2023-03-12T04:58:06;100033.69;;;1.86;100.00
54808;BME280;40708;50.364;7.550;2023-03-12T05:00:31;100030.19;;;1.85;100.00
54808;BME280;40708;50.364;7.550;2023-03-12T05:02:56;100029.34;;;1.85;100.00
54808;BME280;40708;50.364;7.550;2023-03-12T05:05:22;100028.53;;;1.87;100.00
54808;BME280;40708;50.364;7.550;2023-03-12T05:07:47;100025.84;;;1.86;100.00
54808;BME280;40708;50.364;7.550;2023-03-12T05:10:12;100024.25;;;1.91;100.00
54808;BME280;40708;50.364;7.550;2023-03-12T05:12:38;100026.25;;;1.99;100.00
54808;BME280;40708;50.364;7.550;2023-03-12T05:15:03;100017.56;;;2.00;100.00
54808;BME280;40708;50.364;7.550;2023-03-12T05:17:29;100018.44;;;2.01;100.00
54808;BME280;40708;50.364;7.550;2023-03-12T05:19:54;100019.41;;;2.04;100.00
54808;BME280;40708;50.364;7.550;2023-03-12T05:22:19;100014.06;;;2.01;100.00
54808;BME280;40708;50.364;7.550;2023-03-12T05:24:45;100016.69;;;2.01;100.00
54808;BME280;40708;50.364;7.550;2023-03-12T05:27:10;100017.66;;;2.03;100.00
54808;BME280;40708;50.364;7.550;2023-03-12T05:29:36;100014.03;;;1.98;100.00
54808;BME280;40708;50.364;7.550;2023-03-12T05:32:01;99999.13;;;1.96;100.00
54808;BME280;40708;50.364;7.550;2023-03-12T05:34:27;99997.38;;;1.96;100.00
54808;BME280;40708;50.364;7.550;2023-03-12T05:36:56;100001.97;;;2.05;100.00
54808;BME280;40708;50.364;7.550;2023-03-12T05:39:23;100010.59;;;2.01;100.00
54808;BME280;40708;50.364;7.550;2023-03-12T05:41:48;100005.47;;;2.04;100.00
54808;BME280;40708;50.364;7.550;2023-03-12T05:44:13;100009.09;;;2.10;100.00
54808;BME280;40708;50.364;7.550;2023-03-12T05:46:40;100006.56;;;2.13;100.00
54808;BME280;40708;50.364;7.550;2023-03-12T05:49:06;100015.34;;;2.15;100.00
54808;BME280;40708;50.364;7.550;2023-03-12T05:51:31;100007.47;;;2.14;100.00
54808;BME280;40708;50.364;7.550;2023-03-12T05:53:56;100013.34;;;2.05;100.00
54808;BME280;40708;50.364;7.550;2023-03-12T05:56:23;100015.13;;;2.06;100.00
54808;BME280;40708;50.364;7.550;2023-03-12T05:58:48;100023.81;;;2.05;100.00
54808;BME280;40708;50.364;7.550;2023-03-12T06:01:19;100028.06;;;2.02;100.00
54808;BME280;40708;50.364;7.550;2023-03-12T06:03:45;100034.00;;;1.96;100.00
54808;BME280;40708;50.364;7.550;2023-03-12T06:06:11;100034.81;;;1.94;100.00
54808;BME280;40708;50.364;7.550;2023-03-12T06:08:37;100032.25;;;1.95;100.00
54808;BME280;40708;50.364;7.550;2023-03-12T06:11:03;100026.72;;;1.85;100.00
54808;BME280;40708;50.364;7.550;2023-03-12T06:13:28;100024.03;;;1.83;100.00
54808;BME280;40708;50.364;7.550;2023-03-12T06:15:54;100017.88;;;1.81;100.00
54808;BME280;40708;50.364;7.550;2023-03-12T06:18:25;100012.47;;;1.75;100.00
54808;BME280;40708;50.364;7.550;2023-03-12T06:20:50;100014.16;;;1.73;100.00
54808;BME280;40708;50.364;7.550;2023-03-12T06:23:15;100021.03;;;1.69;100.00
54808;BME280;40708;50.364;7.550;2023-03-12T06:25:43;100025.34;;;1.67;100.00
54808;BME280;40708;50.364;7.550;2023-03-12T06:28:09;100032.09;;;1.61;100.00
54808;BME280;40708;50.364;7.550;2023-03-12T06:30:34;100038.13;;;1.58;100.00
54808;BME280;40708;50.364;7.550;2023-03-12T06:32:59;100035.41;;;1.54;100.00
54808;BME280;40708;50.364;7.550;2023-03-12T06:35:25;100036.31;;;1.56;100.00
54808;BME280;40708;50.364;7.550;2023-03-12T06:37:50;100045.97;;;1.58;100.00
54808;BME280;40708;50.364;7.550;2023-03-12T06:40:15;100058.25;;;1.61;100.00
54808;BME280;40708;50.364;7.550;2023-03-12T06:42:41;100049.59;;;1.63;100.00
54808;BME280;40708;50.364;7.550;2023-03-12T06:45:07;100051.53;;;1.69;100.00
54808;BME280;40708;50.364;7.550;2023-03-12T06:47:33;100047.06;;;1.65;100.00
54808;BME280;40708;50.364;7.550;2023-03-12T06:49:58;100037.72;;;1.74;100.00
54808;BME280;40708;50.364;7.550;2023-03-12T06:52:24;100038.84;;;1.83;100.00
54808;BME280;40708;50.364;7.550;2023-03-12T06:54:49;100041.75;;;1.93;100.00
54808;BME280;40708;50.364;7.550;2023-03-12T06:57:14;100044.72;;;2.05;100.00
54808;BME280;40708;50.364;7.550;2023-03-12T06:59:41;100037.78;;;2.06;100.00
54808;BME280;40708;50.364;7.550;2023-03-12T07:02:09;100048.34;;;2.10;100.00
54808;BME280;40708;50.364;7.550;2023-03-12T07:04:35;100044.38;;;2.24;100.00
54808;BME280;40708;50.364;7.550;2023-03-12T07:07:00;100049.88;;;2.33;100.00
54808;BME280;40708;50.364;7.550;2023-03-12T07:09:26;100046.59;;;2.42;100.00
54808;BME280;40708;50.364;7.550;2023-03-12T07:11:51;100041.59;;;2.50;100.00
54808;BME280;40708;50.364;7.550;2023-03-12T07:14:16;100043.25;;;2.48;100.00
54808;BME280;40708;50.364;7.550;2023-03-12T07:16:43;100046.81;;;2.50;100.00
54808;BME280;40708;50.364;7.550;2023-03-12T07:19:08;100043.50;;;2.57;100.00
54808;BME280;40708;50.364;7.550;2023-03-12T07:21:34;100036.38;;;2.51;100.00
54808;BME280;40708;50.364;7.550;2023-03-12T07:23:59;100040.19;;;2.64;100.00
54808;BME280;40708;50.364;7.550;2023-03-12T07:26:24;100033.13;;;2.61;100.00
54808;BME280;40708;50.364;7.550;2023-03-12T07:28:50;100038.63;;;2.72;100.00
54808;BME280;40708;50.364;7.550;2023-03-12T07:31:15;100049.16;;;2.73;100.00
54808;BME280;40708;50.364;7.550;2023-03-12T07:33:40;100049.28;;;2.78;100.00
54808;BME280;40708;50.364;7.550;2023-03-12T07:36:06;100037.97;;;2.80;100.00
54808;BME280;40708;50.364;7.550;2023-03-12T07:38:31;100037.59;;;2.99;100.00
54808;BME280;40708;50.364;7.550;2023-03-12T07:40:57;100036.00;;;3.06;100.00
54808;BME280;40708;50.364;7.550;2023-03-12T07:43:23;100029.47;;;3.25;100.00
54808;BME280;40708;50.364;7.550;2023-03-12T07:45:49;100034.78;;;3.29;100.00
54808;BME280;40708;50.364;7.550;2023-03-12T07:48:15;100032.81;;;3.18;100.00
54808;BME280;40708;50.364;7.550;2023-03-12T07:50:41;100024.69;;;3.07;100.00
54808;BME280;40708;50.364;7.550;2023-03-12T07:53:07;100018.81;;;3.19;100.00
54808;BME280;40708;50.364;7.550;2023-03-12T07:55:33;100020.44;;;3.12;100.00
54808;BME280;40708;50.364;7.550;2023-03-12T07:57:59;100028.31;;;3.12;100.00
54808;BME280;40708;50.364;7.550;2023-03-12T08:00:25;100022.34;;;3.21;100.00
54808;BME280;40708;50.364;7.550;2023-03-12T08:02:51;100025.25;;;3.31;100.00
54808;BME280;40708;50.364;7.550;2023-03-12T08:05:17;100033.13;;;3.31;100.00
54808;BME280;40708;50.364;7.550;2023-03-12T08:07:42;100028.72;;;3.32;100.00
54808;BME280;40708;50.364;7.550;2023-03-12T08:10:09;100020.13;;;3.37;100.00
54808;BME280;40708;50.364;7.550;2023-03-12T08:12:35;100025.28;;;3.33;100.00
54808;BME280;40708;50.364;7.550;2023-03-12T08:15:02;100028.88;;;3.38;100.00
54808;BME280;40708;50.364;7.550;2023-03-12T08:17:28;100032.38;;;3.37;100.00
54808;BME280;40708;50.364;7.550;2023-03-12T08:19:53;100034.44;;;3.51;100.00
54808;BME280;40708;50.364;7.550;2023-03-12T08:22:18;100027.38;;;3.47;100.00
54808;BME280;40708;50.364;7.550;2023-03-12T08:24:43;100024.97;;;3.59;100.00
54808;BME280;40708;50.364;7.550;2023-03-12T08:27:09;100028.81;;;3.75;100.00
54808;BME280;40708;50.364;7.550;2023-03-12T08:29:36;100021.13;;;3.83;100.00
54808;BME280;40708;50.364;7.550;2023-03-12T08:32:01;100015.97;;;3.89;100.00
54808;BME280;40708;50.364;7.550;2023-03-12T08:34:26;100014.78;;;3.73;100.00
54808;BME280;40708;50.364;7.550;2023-03-12T08:36:52;100007.13;;;3.84;100.00
54808;BME280;40708;50.364;7.550;2023-03-12T08:39:17;100002.16;;;3.97;100.00
54808;BME280;40708;50.364;7.550;2023-03-12T08:41:42;100008.44;;;4.05;100.00
54808;BME280;40708;50.364;7.550;2023-03-12T08:44:08;100011.72;;;3.94;100.00
54808;BME280;40708;50.364;7.550;2023-03-12T08:46:33;100013.69;;;4.05;100.00
54808;BME280;40708;50.364;7.550;2023-03-12T08:48:59;100016.16;;;3.98;100.00
54808;BME280;40708;50.364;7.550;2023-03-12T08:51:24;100012.97;;;4.12;100.00
54808;BME280;40708;50.364;7.550;2023-03-12T08:53:49;100007.78;;;4.17;100.00
54808;BME280;40708;50.364;7.550;2023-03-12T08:56:15;100006.19;;;4.25;100.00
54808;BME280;40708;50.364;7.550;2023-03-12T08:58:40;100010.69;;;4.31;100.00
54808;BME280;40708;50.364;7.550;2023-03-12T09:01:12;100019.63;;;4.40;100.00
54808;BME280;40708;50.364;7.550;2023-03-12T09:03:38;100012.47;;;4.32;100.00
54808;BME280;40708;50.364;7.550;2023-03-12T09:06:14;100016.19;;;4.44;100.00
54808;BME280;40708;50.364;7.550;2023-03-12T09:08:41;100018.63;;;4.34;100.00
54808;BME280;40708;50.364;7.550;2023-03-12T09:11:08;100012.28;;;4.24;100.00
54808;BME280;40708;50.364;7.550;2023-03-12T09:13:34;100009.78;;;4.30;100.00
54808;BME280;40708;50.364;7.550;2023-03-12T09:16:00;100009.84;;;4.33;100.00
54808;BME280;40708;50.364;7.550;2023-03-12T09:18:27;100009.72;;;4.27;100.00
54808;BME280;40708;50.364;7.550;2023-03-12T09:20:53;100008.22;;;4.40;100.00
54808;BME280;40708;50.364;7.550;2023-03-12T09:23:18;100022.16;;;4.36;100.00
54808;BME280;40708;50.364;7.550;2023-03-12T09:25:44;100017.25;;;4.54;100.00
54808;BME280;40708;50.364;7.550;2023-03-12T09:28:10;100017.19;;;4.52;100.00
54808;BME280;40708;50.364;7.550;2023-03-12T09:30:36;100011.81;;;4.46;100.00
54808;BME280;40708;50.364;7.550;2023-03-12T09:33:02;100006.81;;;4.58;100.00
54808;BME280;40708;50.364;7.550;2023-03-12T09:35:27;100014.63;;;4.55;100.00
54808;BME280;40708;50.364;7.550;2023-03-12T09:37:53;100010.47;;;4.68;100.00
54808;BME280;40708;50.364;7.550;2023-03-12T09:40:21;100010.56;;;4.72;100.00
54808;BME280;40708;50.364;7.550;2023-03-12T09:42:51;100009.91;;;4.86;100.00
54808;BME280;40708;50.364;7.550;2023-03-12T09:45:27;100004.88;;;5.01;100.00
54808;BME280;40708;50.364;7.550;2023-03-12T09:47:56;99995.94;;;4.90;100.00
54808;BME280;40708;50.364;7.550;2023-03-12T09:50:29;100010.97;;;4.97;100.00
54808;BME280;40708;50.364;7.550;2023-03-12T09:55:47;100013.31;;;5.37;100.00
54808;BME280;40708;50.364;7.550;2023-03-12T09:58:20;100016.28;;;5.61;100.00
54808;BME280;40708;50.364;7.550;2023-03-12T10:00:47;100011.91;;;5.63;100.00
54808;BME280;40708;50.364;7.550;2023-03-12T10:03:22;100008.69;;;5.84;100.00
54808;BME280;40708;50.364;7.550;2023-03-12T10:06:10;100003.72;;;6.07;100.00
54808;BME280;40708;50.364;7.550;2023-03-12T10:08:49;99999.34;;;6.06;100.00
54808;BME280;40708;50.364;7.550;2023-03-12T10:22:06;99969.44;;;7.01;100.00
54808;BME280;40708;50.364;7.550;2023-03-12T10:27:21;99962.44;;;7.05;100.00
54808;BME280;40708;50.364;7.550;2023-03-12T10:29:49;99957.22;;;7.11;100.00
54808;BME280;40708;50.364;7.550;2023-03-12T10:34:51;99959.31;;;7.74;100.00
54808;BME280;40708;50.364;7.550;2023-03-12T10:37:21;99959.31;;;7.74;100.00
54808;BME280;40708;50.364;7.550;2023-03-12T10:39:48;99958.47;;;7.83;100.00
54808;BME280;40708;50.364;7.550;2023-03-12T10:42:19;99946.25;;;8.12;100.00
54808;BME280;40708;50.364;7.550;2023-03-12T10:44:50;99953.34;;;8.28;100.00
54808;BME280;40708;50.364;7.550;2023-03-12T10:50:30;99930.31;;;9.51;100.00
54808;BME280;40708;50.364;7.550;2023-03-12T10:53:21;99917.66;;;10.12;100.00
54808;BME280;40708;50.364;7.550;2023-03-12T10:56:17;99909.41;;;10.56;100.00
54808;BME280;40708;50.364;7.550;2023-03-12T10:58:51;99908.31;;;10.80;100.00
54808;BME280;40708;50.364;7.550;2023-03-12T11:01:26;99904.47;;;11.14;100.00
54808;BME280;40708;50.364;7.550;2023-03-12T11:03:53;99893.84;;;11.14;100.00
54808;BME280;40708;50.364;7.550;2023-03-12T11:06:31;99883.13;;;11.21;100.00
54808;BME280;40708;50.364;7.550;2023-03-12T11:09:04;99882.47;;;11.77;100.00
54808;BME280;40708;50.364;7.550;2023-03-12T11:11:32;99870.47;;;12.12;100.00
54808;BME280;40708;50.364;7.550;2023-03-12T11:14:19;99881.47;;;11.86;100.00
54808;BME280;40708;50.364;7.550;2023-03-12T11:16:45;99887.53;;;11.96;100.00
54808;BME280;40708;50.364;7.550;2023-03-12T11:19:25;99890.13;;;11.99;100.00
54808;BME280;40708;50.364;7.550;2023-03-12T11:22:05;99894.97;;;11.69;100.00
54808;BME280;40708;50.364;7.550;2023-03-12T11:24:33;99893.81;;;11.90;100.00
54808;BME280;40708;50.364;7.550;2023-03-12T11:27:04;99894.97;;;11.66;100.00
54808;BME280;40708;50.364;7.550;2023-03-12T11:29:32;99887.63;;;11.89;100.00
54808;BME280;40708;50.364;7.550;2023-03-12T11:32:24;99884.56;;;12.15;100.00
54808;BME280;40708;50.364;7.550;2023-03-12T11:34:55;99883.81;;;12.09;100.00
54808;BME280;40708;50.364;7.550;2023-03-12T11:40:23;99882.03;;;12.09;100.00
54808;BME280;40708;50.364;7.550;2023-03-12T11:51:54;99862.59;;;12.04;100.00
54808;BME280;40708;50.364;7.550;2023-03-12T11:57:23;99850.69;;;12.29;100.00
54808;BME280;40708;50.364;7.550;2023-03-12T12:00:13;99858.56;;;11.76;100.00
54808;BME280;40708;50.364;7.550;2023-03-12T12:05:37;99831.19;;;11.66;100.00
54808;BME280;40708;50.364;7.550;2023-03-12T12:08:11;99846.34;;;11.63;100.00
54808;BME280;40708;50.364;7.550;2023-03-12T12:21:35;99834.31;;;11.33;100.00
54808;BME280;40708;50.364;7.550;2023-03-12T12:24:29;99837.81;;;11.35;100.00
54808;BME280;40708;50.364;7.550;2023-03-12T12:29:54;99832.44;;;11.41;100.00
54808;BME280;40708;50.364;7.550;2023-03-12T12:32:29;99837.72;;;11.43;100.00
54808;BME280;40708;50.364;7.550;2023-03-12T12:35:20;99833.25;;;11.45;100.00
54808;BME280;40708;50.364;7.550;2023-03-12T12:43:39;99844.59;;;11.60;100.00
54808;BME280;40708;50.364;7.550;2023-03-12T12:46:11;99835.75;;;11.60;100.00
54808;BME280;40708;50.364;7.550;2023-03-12T12:48:41;99851.59;;;11.64;100.00
54808;BME280;40708;50.364;7.550;2023-03-12T12:51:08;99834.75;;;11.67;100.00
54808;BME280;40708;50.364;7.550;2023-03-12T12:56:53;99821.13;;;11.92;100.00
54808;BME280;40708;50.364;7.550;2023-03-12T13:02:23;99812.72;;;12.20;100.00
54808;BME280;40708;50.364;7.550;2023-03-12T13:04:54;99809.84;;;12.33;100.00
54808;BME280;40708;50.364;7.550;2023-03-12T13:09:53;99828.03;;;12.58;100.00
54808;BME280;40708;50.364;7.550;2023-03-12T13:12:42;99810.41;;;12.52;100.00
54808;BME280;40708;50.364;7.550;2023-03-12T13:34:07;99824.34;;;13.15;100.00
54808;BME280;40708;50.364;7.550;2023-03-12T13:36:43;99825.34;;;13.52;100.00
54808;BME280;40708;50.364;7.550;2023-03-12T13:41:48;99821.72;;;13.53;100.00
54808;BME280;40708;50.364;7.550;2023-03-12T13:44:29;99812.41;;;13.74;100.00
54808;BME280;40708;50.364;7.550;2023-03-12T13:47:25;99813.88;;;13.87;100.00
54808;BME280;40708;50.364;7.550;2023-03-12T13:49:54;99828.59;;;13.65;100.00
54808;BME280;40708;50.364;7.550;2023-03-12T13:57:49;99811.41;;;13.78;100.00
54808;BME280;40708;50.364;7.550;2023-03-12T14:00:39;99813.81;;;13.90;100.00
54808;BME280;40708;50.364;7.550;2023-03-12T14:05:47;99801.44;;;13.86;100.00
54808;BME280;40708;50.364;7.550;2023-03-12T14:16:46;99839.81;;;12.92;100.00
54808;BME280;40708;50.364;7.550;2023-03-12T14:19:23;99842.38;;;12.98;100.00
54808;BME280;40708;50.364;7.550;2023-03-12T14:21:49;99830.91;;;12.96;100.00
54808;BME280;40708;50.364;7.550;2023-03-12T14:24:29;99837.72;;;13.12;100.00
54808;BME280;40708;50.364;7.550;2023-03-12T14:26:56;99836.94;;;13.04;100.00
54808;BME280;40708;50.364;7.550;2023-03-12T14:29:28;99837.72;;;13.12;100.00
54808;BME280;40708;50.364;7.550;2023-03-12T14:31:58;99834.06;;;12.69;100.00
54808;BME280;40708;50.364;7.550;2023-03-12T14:34:29;99833.03;;;12.77;100.00
54808;BME280;40708;50.364;7.550;2023-03-12T14:37:09;99841.59;;;12.42;100.00
54808;BME280;40708;50.364;7.550;2023-03-12T14:42:07;99848.03;;;12.29;100.00
54808;BME280;40708;50.364;7.550;2023-03-12T14:44:35;99839.09;;;12.32;100.00
54808;BME280;40708;50.364;7.550;2023-03-12T14:47:16;99839.91;;;12.37;100.00